Strona główna
METAR-TAF:

METAR-TAF

Lotnisko :

Port lotniczy Samedan

Sankt Moritz, Szwajcaria

Szerokość geograficzna: 46-32-03N, Długość geograficzna: 9-53-03E, wysokość: 1707 m

Aktualna obserwacja pogody

Raport powstał 10 minut temu, godzina 15:50 UTC
Wiatr 1 kt z kierunków zmiennych
Temperatura -9°C
Wilgotność 92%
Ciśnienie 1011 hPa
Widzialność: 0300 m
śnieg, Mgła w płatach

METAR: LSZS 271550Z VRB01KT 0300 SN BCFG VV003 M09/M10 Q1011 R/SNOCLO RMK S TL180

czas: 17:00 (16:00 UTC)

Prognoza

Raport powstał 1 godzina i 35 minut temu, godzina 14:25 UTC
Prognoza ważna od 27 godzina 15 UTC do 27 godzina 24 UTC
Wiatr 2 kt z kierunków zmiennych
Widzialność: 2000 m
Przerywane chmury na wysokości 800 ft
słaby śnieg
Przejściowo
od 27 godzina 15 UTC do 27 godzina 24 UTC
Widzialność: 0500 m
na wysokości 300 ft
silny śnieg

TAF: LSZS 271425Z 2715/2724 VRB02KT 2000 -SN BKN008 TXM07/2724Z TEMPO 2715/2724 0500 +SN VV003

Obserwacja i prognoza pogody dla ponad 4000 lotnisk (raport METAR i TAF).

Dostępne stacje oznaczono żółtymi i czerwonymi punktami na mapie.

Najedź kursorem aby zobaczyć nazwę stacji.

Kliknij aby zobaczyć obserwacje i prognozy pogody.

Aby zmienić mapę: kliknij na zielony przycisk z czarnym krzyżykiem, aby powiększyć; na zielony przycisk z myślnikiem, aby pomniejszyć; na zielone strzałki, aby przejść do map sąsiednich.


METAR-TAF: